CheckWX is a tool to help pilots better visualize weather data.  It is not intended as a substitute for an official pre-flight weather briefing.

02:23:55 UTC

LTCI TAF
Van Ferit Melen Airport
Van, Turkey
TAF LTCI 222240Z 2300/2309 VRB02KT 9999 SCT035 BKN070

Apr-23@
00:00 UTC

Apr-23 @ 00:00 UTC

Apr-23@
09:00 UTC

Apr-23 @ 09:00 UTC

TAF LTCI 222240Z 2300/2309 VRB02KT 9999 SCT035 BKN070
Wind
  • Variable at 2 KTS
Cloud Levels
  • Scattered at 3,500' AGL
  • Broken at 7,000' AGL